PHTO/ITO METAR and TAF weather

Enter ICAO airport designator
Station Type Date Time Source
PHTO METAR 2022/01/26 08:53 UTC NOAA

PHTO 260853Z AUTO 23004KT 10SM SCT025 BKN035 22/18 A3007 RMK AO2 SLP182 T02170178 51008 TSNO


Station Type Date Time Source
PHTO Decoded METAR 2022/01/26 08:53 UTC NOAA

HILO INTERNATIONAL AIRPORT, HI, United States (PHTO) 19-43N 155-03W 12M
Jan 26, 2022 - 03:53 AM EST / 2022.01.26 0853 UTC
Wind: from the SW (230 degrees) at 5 MPH (4 KT):0
Visibility: 10 mile(s):0
Sky conditions: mostly cloudy
Temperature: 71.1 F (21.7 C)
Dew Point: 64.0 F (17.8 C)
Relative Humidity: 78%
Pressure (altimeter): 30.07 in. Hg (1018 hPa)
Pressure tendency: 0.02 inches (0.8 hPa) higher than three hours ago
ob: PHTO 260853Z AUTO 23004KT 10SM SCT025 BKN035 22/18 A3007 RMK AO2 SLP182 T02170178 51008 TSNO
cycle: 9

Station Type Date Time Source
PHTO TAF 2022/01/26 06:24 UTC NOAA

TAF PHTO 260521Z 2606/2706 VRB05KT P6SM FEW030 BKN045
FM260800 24005KT P6SM VCSH SCT025 BKN045
FM262000 03009KT P6SM SCT025 BKN035
FM270400 VRB04KT P6SM SCT025 SCT045

Example: see airport list